Time;durP1;ratioP1;P1;durP2;ratioP2;P2;SDS_P1;SDS_P2;PMS_P1;PMS_P2;Temp;Humidity;BMP_temperature;BMP_pressure;BME280_temperature;BME280_humidity;BME280_pressure;Samples;Min_cycle;Max_cycle;Signal;HPM_P1;HPM_P2
2022/10/27 00:00:55;;;;;;;;;;;15.20;99.90;;;;;;5053654;28;19911;-77
2022/10/27 00:03:21;;;;;;;;;;;15.20;99.90;;;;;;5053223;28;19915;-76
2022/10/27 00:05:47;;;;;;;;;;;15.20;99.90;;;;;;5053562;28;19908;-78
2022/10/27 00:08:16;;;;;;;;;;;15.10;99.90;;;;;;5053257;28;19959;-76
2022/10/27 00:10:43;;;;;;;;;;;15.10;99.90;;;;;;5053210;28;19931;-76
2022/10/27 00:13:09;;;;;;;;;;;15.10;99.90;;;;;;5054008;28;19908;-76
2022/10/27 00:15:35;;;;;;;;;;;15.20;99.90;;;;;;5057109;28;19904;-77
2022/10/27 00:18:00;;;;;;;;;;;15.20;99.90;;;;;;5057056;28;19912;-78
2022/10/27 00:20:26;;;;;;;;;;;15.20;99.90;;;;;;5057308;28;19908;-76
2022/10/27 00:22:53;;;;;;;;;;;15.30;99.90;;;;;;5056909;28;20380;-78
2022/10/27 00:25:18;;;;;;;;;;;15.20;99.90;;;;;;5056950;28;19991;-77
2022/10/27 00:27:44;;;;;;;;;;;15.20;99.90;;;;;;5057152;28;19943;-77
2022/10/27 00:30:09;;;;;;;;;;;15.30;99.90;;;;;;5039002;28;19905;-78
2022/10/27 00:32:35;;;;;;;;;;;15.30;99.90;;;;;;5057035;28;19912;-75
2022/10/27 00:35:01;;;;;;;;;;;15.20;99.90;;;;;;5056999;28;19909;-76
2022/10/27 00:37:27;;;;;;;;;;;15.20;99.90;;;;;;5038672;28;19917;-75
2022/10/27 00:39:52;;;;;;;;;;;15.20;99.90;;;;;;5038750;28;19951;-78
2022/10/27 00:42:18;;;;;;;;;;;15.20;99.90;;;;;;5056604;28;20285;-76
2022/10/27 00:44:47;;;;;;;;;;;15.20;99.90;;;;;;5056484;28;19913;-77
2022/10/27 00:47:17;;;;;;;;;;;15.20;99.90;;;;;;5056537;28;19905;-75
2022/10/27 00:49:56;;;;;;;;;;;15.20;99.90;;;;;;5057248;28;19912;-77
2022/10/27 00:52:41;;;;;;;;;;;15.20;99.90;;;;;;5056733;28;19951;-78
2022/10/27 00:55:10;;;;;;;;;;;15.20;99.90;;;;;;5056382;28;19904;-76
2022/10/27 00:57:36;;;;;;;;;;;15.10;99.90;;;;;;5056572;28;19970;-75
2022/10/27 01:00:03;;;;;;;;;;;15.20;99.90;;;;;;5038383;28;19931;-77
2022/10/27 01:02:29;;;;;;;;;;;15.20;99.90;;;;;;5056156;28;20393;-77
2022/10/27 01:05:18;;;;;;;;;;;15.20;99.90;;;;;;5056656;28;19959;-78
2022/10/27 01:07:45;;;;;;;;;;;15.20;99.90;;;;;;5042807;28;19953;-77
2022/10/27 01:10:10;;;;;;;;;;;15.20;99.90;;;;;;5056693;28;19905;-78
2022/10/27 01:12:36;;;;;;;;;;;15.20;99.90;;;;;;5056588;28;19912;-79
2022/10/27 01:15:02;;;;;;;;;;;15.20;99.90;;;;;;5038155;28;19904;-76
2022/10/27 01:17:43;;;;;;;;;;;15.20;99.90;;;;;;5056520;28;19906;-76
2022/10/27 01:20:29;;;;;;;;;;;15.30;99.90;;;;;;5055942;28;19912;-76
2022/10/27 01:23:14;;;;;;;;;;;15.30;99.90;;;;;;5056129;28;19920;-77
2022/10/27 01:25:51;;;;;;;;;;;15.30;99.90;;;;;;5036531;28;19908;-78
2022/10/27 01:28:19;;;;;;;;;;;15.30;99.90;;;;;;5056346;28;19947;-75
2022/10/27 01:30:50;;;;;;;;;;;15.20;99.90;;;;;;5055712;28;19905;-78
2022/10/27 01:33:21;;;;;;;;;;;15.20;99.90;;;;;;5055581;28;20003;-76
2022/10/27 01:35:52;;;;;;;;;;;15.20;99.90;;;;;;5055923;28;19905;-78
2022/10/27 01:38:18;;;;;;;;;;;15.10;99.90;;;;;;5055526;28;19923;-76
2022/10/27 01:40:46;;;;;;;;;;;15.10;99.90;;;;;;5055764;28;19906;-78
2022/10/27 01:43:15;;;;;;;;;;;15.10;99.90;;;;;;5055399;28;20013;-76
2022/10/27 01:45:40;;;;;;;;;;;15.10;99.90;;;;;;5056003;28;20356;-76
2022/10/27 01:48:07;;;;;;;;;;;15.10;99.90;;;;;;5055403;28;19952;-76
2022/10/27 01:50:34;;;;;;;;;;;15.10;99.90;;;;;;5055373;28;19955;-78
2022/10/27 01:52:59;;;;;;;;;;;15.10;99.90;;;;;;5055560;28;19909;-76
2022/10/27 01:55:25;;;;;;;;;;;15.00;99.90;;;;;;5055504;28;19919;-75
2022/10/27 01:57:50;;;;;;;;;;;15.00;99.90;;;;;;5055232;28;19946;-75
2022/10/27 02:00:16;;;;;;;;;;;15.00;99.90;;;;;;5055181;28;19905;-75
2022/10/27 02:02:50;;;;;;;;;;;15.00;99.90;;;;;;5055681;28;20341;-77
2022/10/27 02:05:15;;;;;;;;;;;15.00;99.90;;;;;;5055074;28;19955;-76
2022/10/27 02:07:48;;;;;;;;;;;15.00;99.90;;;;;;5055540;28;20319;-76
2022/10/27 02:10:16;;;;;;;;;;;15.00;99.90;;;;;;5054985;28;19905;-76
2022/10/27 02:12:42;;;;;;;;;;;15.00;99.90;;;;;;5037538;28;19909;-78
2022/10/27 02:15:16;;;;;;;;;;;15.00;99.90;;;;;;5054876;28;19912;-74
2022/10/27 02:17:42;;;;;;;;;;;15.00;99.90;;;;;;5055383;28;19905;-78
2022/10/27 02:20:12;;;;;;;;;;;14.90;99.90;;;;;;5036868;28;19954;-77
2022/10/27 02:22:38;;;;;;;;;;;15.00;99.90;;;;;;5055034;28;20277;-78
2022/10/27 02:25:04;;;;;;;;;;;14.90;99.90;;;;;;5054619;28;19909;-76
2022/10/27 02:27:33;;;;;;;;;;;15.00;99.90;;;;;;5054635;28;19908;-76
2022/10/27 02:29:59;;;;;;;;;;;15.00;99.90;;;;;;5054882;28;19985;-76
2022/10/27 02:32:26;;;;;;;;;;;15.00;99.90;;;;;;5054445;28;20369;-77
2022/10/27 02:34:52;;;;;;;;;;;15.10;99.90;;;;;;5055038;28;19905;-76
2022/10/27 02:37:19;;;;;;;;;;;15.10;99.90;;;;;;5053960;28;19912;-75
2022/10/27 02:39:44;;;;;;;;;;;15.10;99.90;;;;;;5036511;28;20289;-76
2022/10/27 02:42:10;;;;;;;;;;;15.10;99.90;;;;;;5054852;28;19905;-78
2022/10/27 02:44:35;;;;;;;;;;;15.00;99.90;;;;;;5054513;28;19920;-75
2022/10/27 02:47:01;;;;;;;;;;;15.00;99.90;;;;;;5054814;28;20273;-77
2022/10/27 02:49:26;;;;;;;;;;;15.10;99.90;;;;;;5054196;28;19912;-75
2022/10/27 02:51:52;;;;;;;;;;;15.10;99.90;;;;;;5054185;28;19905;-77
2022/10/27 02:54:17;;;;;;;;;;;15.10;99.90;;;;;;5054376;28;20028;-78
2022/10/27 02:56:43;;;;;;;;;;;15.10;99.90;;;;;;5054108;28;19904;-75
2022/10/27 02:59:08;;;;;;;;;;;15.10;99.90;;;;;;5054072;28;19904;-77
2022/10/27 03:01:34;;;;;;;;;;;15.10;99.90;;;;;;5054348;28;19905;-76
2022/10/27 03:03:59;;;;;;;;;;;15.20;99.90;;;;;;5053930;28;20311;-77
2022/10/27 03:06:25;;;;;;;;;;;15.10;99.90;;;;;;5054302;28;19904;-75
2022/10/27 03:08:50;;;;;;;;;;;15.10;99.90;;;;;;5036107;28;19955;-76
2022/10/27 03:11:18;;;;;;;;;;;15.30;99.90;;;;;;5054229;28;20003;-76
2022/10/27 03:13:44;;;;;;;;;;;15.40;99.90;;;;;;5054171;28;19999;-77
2022/10/27 03:16:09;;;;;;;;;;;15.50;99.90;;;;;;5053874;28;20384;-76
2022/10/27 03:18:35;;;;;;;;;;;15.50;99.90;;;;;;5054355;28;19911;-76
2022/10/27 03:21:00;;;;;;;;;;;15.60;99.90;;;;;;5053743;28;19909;-75
2022/10/27 03:23:26;;;;;;;;;;;15.60;99.90;;;;;;5054190;28;19908;-75
2022/10/27 03:25:51;;;;;;;;;;;15.60;99.90;;;;;;5053981;28;19912;-75
2022/10/27 03:28:17;;;;;;;;;;;15.70;99.90;;;;;;5054791;28;20357;-75
2022/10/27 03:30:42;;;;;;;;;;;15.70;99.90;;;;;;5057178;28;20249;-76
2022/10/27 03:33:08;;;;;;;;;;;15.60;99.90;;;;;;5057043;28;19905;-76
2022/10/27 03:35:33;;;;;;;;;;;15.60;99.90;;;;;;5055732;28;19912;-76
2022/10/27 03:38:00;;;;;;;;;;;15.60;99.90;;;;;;5053191;28;20013;-76
2022/10/27 03:40:26;;;;;;;;;;;15.60;99.90;;;;;;5053841;28;19905;-77
2022/10/27 03:42:56;;;;;;;;;;;15.50;99.90;;;;;;5053464;28;20368;-76
2022/10/27 03:45:22;;;;;;;;;;;15.60;99.90;;;;;;5053721;28;20419;-77
2022/10/27 03:47:47;;;;;;;;;;;15.50;99.90;;;;;;5053777;28;19905;-77
2022/10/27 03:50:13;;;;;;;;;;;15.50;99.90;;;;;;5057297;28;19905;-78
2022/10/27 03:52:38;;;;;;;;;;;15.50;99.90;;;;;;5057570;28;19908;-78
2022/10/27 03:55:04;;;;;;;;;;;15.50;99.90;;;;;;5057492;28;19944;-78
2022/10/27 03:57:30;;;;;;;;;;;15.40;99.90;;;;;;5057486;28;19909;-78
2022/10/27 03:59:55;;;;;;;;;;;15.40;99.90;;;;;;5058001;28;19905;-78
2022/10/27 04:02:20;;;;;;;;;;;15.50;99.90;;;;;;5057406;28;19906;-77
2022/10/27 04:04:46;;;;;;;;;;;15.50;99.90;;;;;;5057545;28;20368;-76
2022/10/27 04:07:11;;;;;;;;;;;15.50;99.90;;;;;;5057586;28;19953;-76
2022/10/27 04:09:37;;;;;;;;;;;15.50;99.90;;;;;;5039382;28;19905;-75
2022/10/27 04:12:03;;;;;;;;;;;15.50;99.90;;;;;;5057947;28;19905;-77
2022/10/27 04:14:28;;;;;;;;;;;15.50;99.90;;;;;;5057071;28;19912;-75
2022/10/27 04:16:54;;;;;;;;;;;15.50;99.90;;;;;;5057142;28;20372;-77
2022/10/27 04:19:19;;;;;;;;;;;15.50;99.90;;;;;;5039144;28;20003;-77
2022/10/27 04:21:45;;;;;;;;;;;15.50;99.90;;;;;;5056940;28;19999;-76
2022/10/27 04:24:11;;;;;;;;;;;15.50;99.90;;;;;;5057155;28;20353;-77
2022/10/27 04:26:38;;;;;;;;;;;15.50;99.90;;;;;;5057160;28;19905;-77
2022/10/27 04:29:03;;;;;;;;;;;15.60;99.90;;;;;;5056962;28;20433;-75
2022/10/27 04:31:29;;;;;;;;;;;15.50;99.90;;;;;;5057058;28;19947;-77
2022/10/27 04:33:54;;;;;;;;;;;15.50;99.90;;;;;;5056689;28;19944;-77
2022/10/27 04:36:20;;;;;;;;;;;15.60;99.90;;;;;;5056830;28;19931;-78
2022/10/27 04:38:49;;;;;;;;;;;15.50;99.90;;;;;;5057010;28;19905;-76
2022/10/27 04:41:14;;;;;;;;;;;15.50;99.90;;;;;;5038716;28;19983;-77
2022/10/27 04:43:40;;;;;;;;;;;15.50;99.90;;;;;;5056557;28;20357;-76
2022/10/27 04:46:05;;;;;;;;;;;15.50;99.90;;;;;;5056619;28;20372;-75
2022/10/27 04:48:31;;;;;;;;;;;15.50;99.90;;;;;;5056516;28;19911;-77
2022/10/27 04:50:56;;;;;;;;;;;15.50;99.90;;;;;;5056806;28;19912;-76
2022/10/27 04:53:22;;;;;;;;;;;15.50;99.90;;;;;;5056460;28;19905;-78
2022/10/27 04:55:49;;;;;;;;;;;15.60;99.90;;;;;;5056715;28;19908;-77
2022/10/27 04:58:14;;;;;;;;;;;15.60;99.90;;;;;;5056356;28;19904;-78
2022/10/27 05:00:41;;;;;;;;;;;15.70;99.90;;;;;;5056453;28;19911;-77
2022/10/27 05:03:07;;;;;;;;;;;15.70;99.90;;;;;;5056227;28;19912;-75
2022/10/27 05:05:32;;;;;;;;;;;15.70;99.90;;;;;;5056461;28;19905;-76
2022/10/27 05:08:02;;;;;;;;;;;15.60;99.90;;;;;;5056193;28;19905;-76
2022/10/27 05:10:28;;;;;;;;;;;15.60;99.90;;;;;;5056168;28;19911;-75
2022/10/27 05:12:53;;;;;;;;;;;15.60;99.90;;;;;;5056631;28;19905;-78
2022/10/27 05:15:19;;;;;;;;;;;15.60;99.90;;;;;;5056580;28;19935;-75
2022/10/27 05:17:44;;;;;;;;;;;15.60;99.90;;;;;;5038151;28;20375;-76
2022/10/27 05:20:10;;;;;;;;;;;15.60;99.90;;;;;;5056267;28;19911;-77
2022/10/27 05:22:36;;;;;;;;;;;15.60;99.90;;;;;;5055244;28;19904;-79
2022/10/27 05:25:02;;;;;;;;;;;15.60;99.90;;;;;;5055793;28;20380;-77
2022/10/27 05:27:27;;;;;;;;;;;15.60;99.90;;;;;;5055823;28;19909;-78
2022/10/27 05:29:53;;;;;;;;;;;15.60;99.90;;;;;;5056016;28;19912;-78
2022/10/27 05:32:18;;;;;;;;;;;15.60;99.90;;;;;;5055648;28;19908;-76
2022/10/27 05:34:44;;;;;;;;;;;15.60;99.90;;;;;;5055948;28;19959;-76
2022/10/27 05:37:09;;;;;;;;;;;15.60;99.90;;;;;;5055441;28;19942;-76
2022/10/27 05:39:35;;;;;;;;;;;15.60;99.90;;;;;;5055866;28;20276;-78
2022/10/27 05:42:00;;;;;;;;;;;15.60;99.90;;;;;;5055884;28;19905;-77
2022/10/27 05:44:26;;;;;;;;;;;15.50;99.90;;;;;;5055439;28;20412;-76
2022/10/27 05:46:51;;;;;;;;;;;15.50;99.90;;;;;;5056004;28;19904;-77
2022/10/27 05:49:17;;;;;;;;;;;15.50;99.90;;;;;;5055409;28;19999;-77
2022/10/27 05:51:42;;;;;;;;;;;15.50;99.90;;;;;;5055916;28;19996;-78
2022/10/27 05:54:08;;;;;;;;;;;15.50;99.90;;;;;;5055292;28;19954;-76
2022/10/27 05:56:33;;;;;;;;;;;15.50;99.90;;;;;;5055821;28;19936;-77
2022/10/27 05:58:59;;;;;;;;;;;15.60;99.90;;;;;;5055494;28;19916;-76
2022/10/27 06:01:24;;;;;;;;;;;15.50;99.90;;;;;;5055188;28;19909;-76
2022/10/27 06:03:50;;;;;;;;;;;15.50;99.90;;;;;;5055266;28;19966;-78
2022/10/27 06:06:15;;;;;;;;;;;15.50;99.90;;;;;;5055058;28;19905;-76
2022/10/27 06:08:41;;;;;;;;;;;15.50;99.90;;;;;;5055030;28;20357;-77
2022/10/27 06:11:06;;;;;;;;;;;15.50;99.90;;;;;;5054387;28;19912;-78
2022/10/27 06:13:32;;;;;;;;;;;15.50;99.90;;;;;;5055737;28;19954;-76
2022/10/27 06:15:57;;;;;;;;;;;15.50;99.90;;;;;;5054894;28;20277;-77
2022/10/27 06:18:23;;;;;;;;;;;15.50;99.90;;;;;;5055252;28;19905;-76
2022/10/27 06:20:48;;;;;;;;;;;15.40;99.90;;;;;;5054782;28;19904;-77
2022/10/27 06:23:14;;;;;;;;;;;15.40;99.90;;;;;;5054956;28;19948;-78
2022/10/27 06:25:40;;;;;;;;;;;15.40;99.90;;;;;;5054726;28;19916;-76
2022/10/27 06:28:05;;;;;;;;;;;15.40;99.90;;;;;;5054598;28;20387;-75
2022/10/27 06:30:31;;;;;;;;;;;15.40;99.90;;;;;;5054888;28;19999;-78
2022/10/27 06:32:56;;;;;;;;;;;15.40;99.90;;;;;;5054454;28;19958;-76
2022/10/27 06:35:22;;;;;;;;;;;15.40;99.90;;;;;;5054526;28;19905;-79
2022/10/27 06:37:47;;;;;;;;;;;15.40;99.90;;;;;;5054343;28;19912;-76
2022/10/27 06:40:15;;;;;;;;;;;15.50;99.90;;;;;;5054414;28;20368;-78
2022/10/27 06:42:41;;;;;;;;;;;15.50;99.90;;;;;;5054931;28;20011;-78
2022/10/27 06:45:07;;;;;;;;;;;15.50;99.90;;;;;;5054231;28;20384;-76
2022/10/27 06:47:33;;;;;;;;;;;15.60;99.90;;;;;;5054877;28;19905;-76
2022/10/27 06:49:58;;;;;;;;;;;15.50;99.90;;;;;;5054278;28;20262;-77
2022/10/27 06:52:24;;;;;;;;;;;15.50;99.90;;;;;;5036365;28;20391;-76
2022/10/27 06:54:50;;;;;;;;;;;15.60;99.90;;;;;;5054178;28;19982;-77
2022/10/27 06:57:15;;;;;;;;;;;15.60;99.90;;;;;;5054148;28;19912;-78
2022/10/27 06:59:41;;;;;;;;;;;15.50;99.90;;;;;;5036268;28;19934;-78
2022/10/27 07:02:08;;;;;;;;;;;15.50;99.90;;;;;;5054067;28;19940;-77
2022/10/27 07:04:34;;;;;;;;;;;15.50;99.90;;;;;;5054222;28;20360;-76
2022/10/27 07:06:59;;;;;;;;;;;15.50;99.90;;;;;;5054233;28;19959;-79
2022/10/27 07:09:25;;;;;;;;;;;15.50;99.90;;;;;;5053949;28;19987;-77
2022/10/27 07:11:50;;;;;;;;;;;15.60;99.90;;;;;;5045807;28;19909;-78
2022/10/27 07:14:16;;;;;;;;;;;15.60;99.90;;;;;;5016576;28;19955;-75
2022/10/27 07:16:41;;;;;;;;;;;15.60;99.90;;;;;;5033726;28;19936;-79
2022/10/27 07:19:07;;;;;;;;;;;15.60;99.90;;;;;;5032776;28;19932;-77
2022/10/27 07:21:32;;;;;;;;;;;15.60;99.90;;;;;;5009471;28;19912;-78
2022/10/27 07:23:58;;;;;;;;;;;15.60;99.90;;;;;;5035303;28;20388;-82
2022/10/27 07:26:23;;;;;;;;;;;15.60;99.90;;;;;;5026323;28;19909;-82
2022/10/27 07:28:49;;;;;;;;;;;15.60;99.90;;;;;;5020764;28;19951;-78
2022/10/27 07:31:14;;;;;;;;;;;15.60;99.90;;;;;;5037892;28;19909;-80
2022/10/27 07:33:40;;;;;;;;;;;15.60;99.90;;;;;;5032197;28;19932;-76
2022/10/27 07:36:05;;;;;;;;;;;15.60;99.90;;;;;;5030889;28;20281;-78
2022/10/27 07:38:31;;;;;;;;;;;15.70;99.90;;;;;;5032066;28;20388;-76
2022/10/27 07:40:57;;;;;;;;;;;15.70;99.90;;;;;;5053225;28;19935;-80
2022/10/27 07:43:22;;;;;;;;;;;15.80;99.90;;;;;;5044419;28;19916;-78
2022/10/27 07:45:48;;;;;;;;;;;15.80;99.90;;;;;;5052452;28;19917;-75
2022/10/27 07:48:14;;;;;;;;;;;15.80;99.90;;;;;;5053761;28;19908;-77
2022/10/27 07:50:40;;;;;;;;;;;15.80;99.90;;;;;;5053549;28;20289;-79
2022/10/27 07:53:06;;;;;;;;;;;15.90;99.90;;;;;;5053485;28;19905;-77
2022/10/27 07:55:34;;;;;;;;;;;15.90;99.90;;;;;;5053212;28;20297;-79
2022/10/27 07:58:03;;;;;;;;;;;16.00;99.90;;;;;;5051800;28;19909;-78
2022/10/27 08:00:29;;;;;;;;;;;16.00;99.90;;;;;;5046195;28;19913;-78
2022/10/27 08:02:57;;;;;;;;;;;16.10;99.90;;;;;;5053336;28;19905;-78
2022/10/27 08:05:23;;;;;;;;;;;16.20;99.90;;;;;;5050252;28;19997;-78
2022/10/27 08:07:48;;;;;;;;;;;16.20;99.90;;;;;;5053582;28;20005;-77
2022/10/27 08:10:14;;;;;;;;;;;16.20;99.90;;;;;;5051050;28;20042;-78
2022/10/27 08:12:43;;;;;;;;;;;16.20;99.90;;;;;;5051200;28;19913;-77
2022/10/27 08:15:09;;;;;;;;;;;16.20;99.90;;;;;;5053890;28;20003;-78
2022/10/27 08:17:35;;;;;;;;;;;16.20;99.90;;;;;;5052333;28;19909;-76
2022/10/27 08:20:01;;;;;;;;;;;16.30;99.90;;;;;;5052159;28;19916;-76
2022/10/27 08:22:26;;;;;;;;;;;16.30;99.90;;;;;;5052097;28;19909;-75
2022/10/27 08:24:52;;;;;;;;;;;16.40;99.90;;;;;;5053067;28;19908;-79
2022/10/27 08:27:17;;;;;;;;;;;16.50;99.90;;;;;;5053108;28;20280;-82
2022/10/27 08:29:43;;;;;;;;;;;16.60;99.90;;;;;;5053435;28;20333;-79
2022/10/27 08:32:09;;;;;;;;;;;16.60;99.90;;;;;;5053060;28;20289;-78
2022/10/27 08:34:34;;;;;;;;;;;16.90;99.90;;;;;;5052154;28;19909;-79
2022/10/27 08:37:00;;;;;;;;;;;17.30;99.90;;;;;;5038749;28;19958;-78
2022/10/27 08:39:25;;;;;;;;;;;17.80;99.90;;;;;;5055572;28;20384;-79
2022/10/27 08:41:57;;;;;;;;;;;18.30;99.90;;;;;;5054588;28;20046;-78
2022/10/27 08:44:28;;;;;;;;;;;18.30;99.90;;;;;;5055784;28;19924;-79
2022/10/27 08:46:56;;;;;;;;;;;18.20;99.90;;;;;;5055400;28;20408;-76
2022/10/27 08:49:23;;;;;;;;;;;18.10;99.90;;;;;;5055709;28;19904;-78
2022/10/27 08:51:50;;;;;;;;;;;18.20;99.90;;;;;;5041138;28;19912;-76
2022/10/27 08:54:15;;;;;;;;;;;18.10;99.90;;;;;;5053343;28;19948;-77
2022/10/27 08:56:42;;;;;;;;;;;18.00;99.90;;;;;;5056668;28;19905;-79
2022/10/27 08:59:17;;;;;;;;;;;17.90;99.90;;;;;;5055282;28;19909;-75
2022/10/27 09:01:43;;;;;;;;;;;17.80;99.90;;;;;;5055478;28;20007;-80
2022/10/27 09:04:14;;;;;;;;;;;17.70;99.90;;;;;;5037622;28;20012;-79
2022/10/27 09:06:43;;;;;;;;;;;17.60;99.90;;;;;;5038371;28;19909;-79
2022/10/27 09:09:14;;;;;;;;;;;17.50;99.90;;;;;;5054727;28;19909;-80
2022/10/27 09:11:40;;;;;;;;;;;17.50;99.90;;;;;;5052895;28;19939;-81
2022/10/27 09:14:26;;;;;;;;;;;17.60;99.90;;;;;;5051826;28;19927;-76
2022/10/27 09:16:52;;;;;;;;;;;17.70;99.90;;;;;;5053676;28;19909;-75
2022/10/27 09:19:21;;;;;;;;;;;17.90;99.90;;;;;;5055263;28;20000;-75
2022/10/27 09:21:48;;;;;;;;;;;18.00;99.90;;;;;;5056425;28;20314;-76
2022/10/27 09:24:16;;;;;;;;;;;18.00;99.90;;;;;;5055729;28;19915;-75
2022/10/27 09:26:42;;;;;;;;;;;18.00;99.90;;;;;;5055439;28;19991;-76
2022/10/27 09:29:27;;;;;;;;;;;18.00;99.90;;;;;;5052546;28;20270;-76
2022/10/27 09:31:59;;;;;;;;;;;18.20;99.90;;;;;;5054794;28;19905;-78
2022/10/27 09:34:39;;;;;;;;;;;18.30;99.90;;;;;;5054900;28;19909;-75
2022/10/27 09:37:11;;;;;;;;;;;18.40;99.90;;;;;;5052195;28;20007;-76
2022/10/27 09:39:37;;;;;;;;;;;18.40;99.90;;;;;;5054643;28;19909;-74
2022/10/27 09:42:02;;;;;;;;;;;18.70;99.90;;;;;;5055612;28;19905;-77
2022/10/27 09:44:28;;;;;;;;;;;18.90;99.90;;;;;;5056053;28;19966;-76
2022/10/27 09:46:54;;;;;;;;;;;18.90;99.90;;;;;;5053373;28;20372;-76
2022/10/27 09:49:21;;;;;;;;;;;18.90;99.90;;;;;;5053339;28;19932;-74
2022/10/27 09:51:49;;;;;;;;;;;18.80;99.90;;;;;;5053474;28;19908;-74
2022/10/27 09:54:30;;;;;;;;;;;18.70;99.90;;;;;;5054294;28;20369;-76
2022/10/27 09:57:01;;;;;;;;;;;18.70;99.90;;;;;;5055308;28;19905;-77
2022/10/27 09:59:26;;;;;;;;;;;18.60;99.90;;;;;;5053897;28;19909;-77
2022/10/27 10:01:58;;;;;;;;;;;18.60;99.90;;;;;;5054532;28;20275;-75
2022/10/27 10:04:24;;;;;;;;;;;18.50;99.90;;;;;;5049638;28;19912;-77
2022/10/27 10:06:54;;;;;;;;;;;18.60;99.90;;;;;;5054640;28;19916;-77
2022/10/27 10:09:25;;;;;;;;;;;18.60;99.90;;;;;;5032597;28;20068;-76
2022/10/27 10:11:51;;;;;;;;;;;18.60;99.90;;;;;;5054958;28;19908;-80
2022/10/27 10:14:21;;;;;;;;;;;18.80;99.90;;;;;;5052317;28;19909;-79
2022/10/27 10:16:47;;;;;;;;;;;18.90;99.90;;;;;;5033165;28;20325;-82
2022/10/27 10:19:19;;;;;;;;;;;19.00;99.90;;;;;;5050600;28;19915;-80
2022/10/27 10:21:49;;;;;;;;;;;19.20;99.90;;;;;;5035489;28;19955;-83
2022/10/27 10:24:16;;;;;;;;;;;19.20;99.90;;;;;;5022066;28;19919;-80
2022/10/27 10:26:44;;;;;;;;;;;19.40;99.90;;;;;;5055246;28;19904;-80
2022/10/27 10:29:15;;;;;;;;;;;19.50;99.90;;;;;;5053075;28;19913;-82
2022/10/27 10:31:41;;;;;;;;;;;19.60;99.90;;;;;;5027213;28;19909;-79
2022/10/27 10:34:23;;;;;;;;;;;19.70;99.90;;;;;;5052467;28;19908;-77
2022/10/27 10:36:49;;;;;;;;;;;19.70;99.90;;;;;;5050809;28;19920;-76
2022/10/27 10:39:34;;;;;;;;;;;19.70;99.90;;;;;;5053940;28;19905;-77
2022/10/27 10:42:08;;;;;;;;;;;19.80;99.90;;;;;;5054811;28;19909;-78
2022/10/27 10:44:34;;;;;;;;;;;19.90;99.90;;;;;;5054166;28;19919;-79
2022/10/27 10:47:00;;;;;;;;;;;20.00;99.90;;;;;;5036469;28;19909;-76
2022/10/27 10:49:28;;;;;;;;;;;20.10;99.90;;;;;;5053946;28;19912;-76
2022/10/27 10:51:58;;;;;;;;;;;20.10;99.90;;;;;;5054218;28;20360;-76
2022/10/27 10:54:30;;;;;;;;;;;20.10;99.90;;;;;;5054448;28;19905;-76
2022/10/27 10:56:55;;;;;;;;;;;20.10;99.90;;;;;;5053985;28;19909;-76
2022/10/27 10:59:23;;;;;;;;;;;20.00;99.90;;;;;;5054395;28;19920;-76
2022/10/27 11:02:07;;;;;;;;;;;20.00;99.90;;;;;;5054032;28;19960;-76
2022/10/27 11:04:41;;;;;;;;;;;20.10;99.90;;;;;;5054220;28;19963;-76
2022/10/27 11:07:15;;;;;;;;;;;20.10;99.90;;;;;;5053963;28;19912;-76
2022/10/27 11:09:48;;;;;;;;;;;20.20;99.90;;;;;;5054270;28;19928;-75
2022/10/27 11:12:40;;;;;;;;;;;20.20;99.90;;;;;;5054222;28;19905;-77
2022/10/27 11:15:12;;;;;;;;;;;20.20;99.90;;;;;;5048677;28;19905;-76
2022/10/27 11:17:40;;;;;;;;;;;20.30;99.90;;;;;;5054074;28;19911;-76
2022/10/27 11:20:10;;;;;;;;;;;20.30;99.90;;;;;;5053760;28;19904;-77
2022/10/27 11:22:36;;;;;;;;;;;20.50;99.90;;;;;;5054054;28;19909;-76
2022/10/27 11:25:13;;;;;;;;;;;20.60;99.90;;;;;;5053598;28;20360;-76
2022/10/27 11:27:41;;;;;;;;;;;20.70;99.90;;;;;;5053899;28;19904;-75
2022/10/27 11:30:10;;;;;;;;;;;20.80;99.90;;;;;;5053661;28;19905;-76
2022/10/27 11:32:35;;;;;;;;;;;20.90;99.90;;;;;;5053555;28;19905;-75
2022/10/27 11:35:17;;;;;;;;;;;20.90;99.90;;;;;;5053621;28;20448;-75
2022/10/27 11:37:50;;;;;;;;;;;21.00;99.90;;;;;;5053409;28;20019;-76
2022/10/27 11:40:21;;;;;;;;;;;21.00;99.90;;;;;;5053725;28;20357;-77
2022/10/27 11:42:54;;;;;;;;;;;21.10;99.90;;;;;;5053577;28;19904;-76
2022/10/27 11:45:40;;;;;;;;;;;21.20;99.90;;;;;;5053389;28;19917;-76
2022/10/27 11:48:08;;;;;;;;;;;21.10;99.90;;;;;;5052717;28;20365;-76
2022/10/27 11:50:51;;;;;;;;;;;21.20;99.90;;;;;;5053483;28;20411;-79
2022/10/27 11:53:17;;;;;;;;;;;21.20;99.90;;;;;;5053912;28;20234;-77
2022/10/27 11:55:42;;;;;;;;;;;21.30;99.90;;;;;;5053354;28;19911;-76
2022/10/27 11:58:13;;;;;;;;;;;21.30;99.90;;;;;;5053681;28;20361;-78
2022/10/27 12:00:53;;;;;;;;;;;21.30;99.90;;;;;;5053677;28;19952;-76
2022/10/27 12:03:28;;;;;;;;;;;21.30;99.90;;;;;;5053603;28;20008;-76
2022/10/27 12:06:13;;;;;;;;;;;21.30;99.90;;;;;;5053563;28;20003;-76
2022/10/27 12:08:47;;;;;;;;;;;21.40;99.90;;;;;;5053179;28;19996;-79
2022/10/27 12:11:18;;;;;;;;;;;21.40;99.90;;;;;;5054507;28;20350;-75
2022/10/27 12:13:44;;;;;;;;;;;21.40;99.90;;;;;;5056730;28;19954;-77
2022/10/27 12:16:09;;;;;;;;;;;21.50;99.90;;;;;;5056255;28;20331;-79
2022/10/27 12:18:35;;;;;;;;;;;21.60;99.90;;;;;;5056773;28;20406;-77
2022/10/27 12:21:04;;;;;;;;;;;21.70;99.90;;;;;;5054807;28;19908;-77
2022/10/27 12:23:33;;;;;;;;;;;21.70;99.90;;;;;;5055412;28;19963;-79
2022/10/27 12:26:03;;;;;;;;;;;21.60;99.90;;;;;;5057124;28;19963;-82
2022/10/27 12:28:29;;;;;;;;;;;21.60;99.90;;;;;;5054257;28;20379;-78
2022/10/27 12:30:57;;;;;;;;;;;21.50;99.90;;;;;;5054715;28;19909;-77
2022/10/27 12:33:27;;;;;;;;;;;21.60;99.90;;;;;;5056166;28;19915;-77
2022/10/27 12:35:58;;;;;;;;;;;21.60;99.90;;;;;;5054262;28;19923;-79
2022/10/27 12:38:26;;;;;;;;;;;21.60;99.90;;;;;;5057432;28;19909;-80
2022/10/27 12:41:02;;;;;;;;;;;21.50;99.90;;;;;;5055608;28;19904;-74
2022/10/27 12:43:32;;;;;;;;;;;21.50;99.90;;;;;;5044956;28;19924;-76
2022/10/27 12:46:01;;;;;;;;;;;21.50;99.90;;;;;;5047634;28;19959;-81
2022/10/27 12:48:47;;;;;;;;;;;21.50;99.90;;;;;;5048832;28;19912;-78
2022/10/27 12:51:29;;;;;;;;;;;21.50;99.90;;;;;;5055256;28;20376;-79
2022/10/27 12:54:13;;;;;;;;;;;21.60;99.90;;;;;;5051269;28;20007;-78
2022/10/27 12:56:45;;;;;;;;;;;21.70;99.90;;;;;;5056097;28;20023;-77
2022/10/27 12:59:20;;;;;;;;;;;21.80;99.90;;;;;;5056861;28;19913;-75
2022/10/27 13:01:59;;;;;;;;;;;21.80;99.90;;;;;;5053985;28;19909;-74
2022/10/27 13:04:47;;;;;;;;;;;21.80;99.90;;;;;;5037523;28;19913;-78
2022/10/27 13:07:31;;;;;;;;;;;21.80;99.90;;;;;;5002221;28;19917;-75
2022/10/27 13:10:00;;;;;;;;;;;21.70;99.90;;;;;;5046430;28;20391;-76
2022/10/27 13:12:36;;;;;;;;;;;21.80;99.90;;;;;;5055677;28;19951;-77
2022/10/27 13:15:31;;;;;;;;;;;21.90;99.90;;;;;;5056176;28;19905;-77
2022/10/27 13:17:56;;;;;;;;;;;22.10;99.90;;;;;;5034791;28;19911;-77
2022/10/27 13:20:25;;;;;;;;;;;22.00;99.90;;;;;;5056130;28;19905;-78
2022/10/27 13:22:54;;;;;;;;;;;22.00;99.90;;;;;;5056017;28;20380;-79
2022/10/27 13:25:28;;;;;;;;;;;22.00;99.90;;;;;;5034754;28;20371;-79
2022/10/27 13:27:59;;;;;;;;;;;22.00;99.90;;;;;;5056118;28;19905;-79
2022/10/27 13:30:28;;;;;;;;;;;22.10;99.90;;;;;;5055757;28;19943;-78
2022/10/27 13:32:54;;;;;;;;;;;22.10;99.90;;;;;;5055946;28;19905;-77
2022/10/27 13:35:27;;;;;;;;;;;22.10;99.90;;;;;;5049128;28;19912;-76
2022/10/27 13:37:58;;;;;;;;;;;22.00;99.90;;;;;;5054927;28;19912;-78
2022/10/27 13:40:28;;;;;;;;;;;22.00;99.90;;;;;;5053138;28;19908;-80
2022/10/27 13:42:55;;;;;;;;;;;22.00;99.90;;;;;;5055810;28;19932;-81
2022/10/27 13:45:26;;;;;;;;;;;21.90;99.90;;;;;;5055673;28;20011;-77
2022/10/27 13:48:07;;;;;;;;;;;21.80;99.90;;;;;;5055488;28;20292;-78
2022/10/27 13:50:39;;;;;;;;;;;21.70;99.90;;;;;;5055684;28;19904;-77
2022/10/27 13:53:14;;;;;;;;;;;21.70;99.90;;;;;;5037523;28;19904;-76
2022/10/27 13:55:40;;;;;;;;;;;21.60;99.90;;;;;;5054104;28;19955;-76
2022/10/27 13:58:06;;;;;;;;;;;21.60;99.90;;;;;;5055275;28;19905;-75
2022/10/27 14:00:45;;;;;;;;;;;21.50;99.90;;;;;;5036235;28;20265;-77
2022/10/27 14:03:25;;;;;;;;;;;21.50;99.90;;;;;;5035438;28;19909;-78
2022/10/27 14:05:52;;;;;;;;;;;21.50;99.90;;;;;;5035267;28;19935;-76
2022/10/27 14:08:19;;;;;;;;;;;21.50;99.90;;;;;;5036598;28;19905;-77
2022/10/27 14:10:45;;;;;;;;;;;21.40;99.90;;;;;;5053358;28;19913;-80
2022/10/27 14:13:15;;;;;;;;;;;21.50;99.90;;;;;;5036627;28;19961;-76
2022/10/27 14:15:40;;;;;;;;;;;21.50;99.90;;;;;;5039538;28;19920;-76
2022/10/27 14:18:16;;;;;;;;;;;21.50;99.90;;;;;;5037733;28;19909;-78
2022/10/27 14:26:21;;;;;;;;;;;21.70;99.90;;;;;;4901582;28;19916;-78
2022/10/27 14:28:47;;;;;;;;;;;21.70;99.90;;;;;;5014183;28;19914;-78